This is the latest recevied weather packets stored in our database for station/object HS6TUX-4. If no packets are shown the sender has not sent any weather packets the latest 10 day(s).
| Time | Temp. | Humidity | Pressure | Rain* | Wind** | Luminosity | Snow |
|---|---|---|---|---|---|---|---|
| 1777703041 | 41.11° C | 82% | 740 hPa | - | - | 48 W/m² | - |
| 1777702113 | 40° C | 88% | 739 hPa | - | - | 44 W/m² | - |
| 1777701185 | 40° C | 92% | 739 hPa | - | - | 49 W/m² | - |
| 1777700257 | 38.89° C | 94% | 737 hPa | - | - | 44 W/m² | - |
| 1777699328 | 39.44° C | 94% | 738 hPa | - | - | 46 W/m² | - |
| 1777698400 | 40.56° C | 97% | 739 hPa | - | - | 58 W/m² | - |
| 1777697472 | 40° C | 99% | 739 hPa | - | - | 81 W/m² | - |
| 1777696543 | 38.33° C | 99% | 737 hPa | - | - | 112 W/m² | - |
| 1777695616 | 41.67° C | 98% | 741 hPa | - | - | 141 W/m² | - |
| 1777694688 | 38.89° C | 99% | 737 hPa | - | - | 131 W/m² | - |
| 1777693759 | 40.56° C | 98% | 739 hPa | - | - | 93 W/m² | - |
| 1777692831 | 39.44° C | 99% | 738 hPa | - | - | 87 W/m² | - |
| 1777691903 | 38.89° C | 99% | 737 hPa | - | - | 95 W/m² | - |
| 1777690975 | 40.56° C | 99% | 739 hPa | - | - | 260 W/m² | - |
| 1777690047 | 40.56° C | 99% | 739 hPa | - | - | 253 W/m² | - |
| 1777689119 | 38.33° C | 99% | 737 hPa | - | - | 118 W/m² | - |
| 1777688191 | 37.22° C | 99% | 736 hPa | - | - | 98 W/m² | - |
| 1777687263 | 39.44° C | 99% | 738 hPa | - | - | 175 W/m² | - |
| 1777686335 | 41.67° C | 99% | 741 hPa | - | - | 157 W/m² | - |
| 1777686142 | 40.56° C | 99% | 740 hPa | - | - | 153 W/m² | - |
| 1777685214 | 40° C | 99% | 739 hPa | - | - | 95 W/m² | - |
| 1777684285 | 38.89° C | 99% | 738 hPa | - | - | 124 W/m² | - |
| 1777683358 | 33.89° C | 99% | 732 hPa | - | - | 94 W/m² | - |
| 1777682429 | 35° C | 99% | 733 hPa | - | - | 57 W/m² | - |
| 1777681500 | 32.78° C | 99% | 730 hPa | - | - | 41 W/m² | - |
* Rain since midnight (hover to see other rain measurements)
** Current wind speed in m/s (hover to see current wind gust speed)